Time;durP1;ratioP1;P1;durP2;ratioP2;P2;SDS_P1;SDS_P2;PMS_P1;PMS_P2;Temp;Humidity;BMP_temperature;BMP_pressure;BME280_temperature;BME280_humidity;BME280_pressure;Samples;Min_cycle;Max_cycle;Signal;HPM_P1;HPM_P2
2024/03/14 00:01:09;;;;;;;7.72;4.10;;;;;;;11.86;67.59;100558.19;5016928;28;20064;-78
2024/03/14 00:04:14;;;;;;;9.45;4.40;;;;;;;11.92;67.69;100560.31;4997305;28;20054;-78
2024/03/14 00:07:19;;;;;;;5.75;3.38;;;;;;;12.00;67.45;100562.31;4997270;28;20045;-78
2024/03/14 00:10:24;;;;;;;14.90;3.92;;;;;;;11.88;67.86;100563.41;4997207;28;20057;-77
2024/03/14 00:13:29;;;;;;;8.02;4.13;;;;;;;11.97;67.14;100560.75;4996814;28;20050;-78
2024/03/14 00:16:34;;;;;;;6.35;3.67;;;;;;;11.90;67.33;100567.66;4996934;28;20050;-78
2024/03/14 00:19:38;;;;;;;7.47;3.70;;;;;;;11.60;68.51;100578.44;4997174;28;20050;-78
2024/03/14 00:22:42;;;;;;;8.10;3.80;;;;;;;11.71;68.42;100567.63;4995993;28;20049;-78
2024/03/14 00:25:47;;;;;;;8.05;3.92;;;;;;;11.94;67.75;100565.56;4996877;28;20049;-79
2024/03/14 00:28:52;;;;;;;7.57;3.80;;;;;;;11.77;67.99;100561.69;4996847;28;20055;-79
2024/03/14 00:31:56;;;;;;;8.95;3.42;;;;;;;11.68;68.70;100559.81;4997404;28;20057;-78
2024/03/14 00:35:02;;;;;;;7.30;3.58;;;;;;;11.55;68.98;100565.38;4996682;28;20073;-78
2024/03/14 00:38:07;;;;;;;8.80;3.78;;;;;;;11.66;69.08;100551.00;4996785;28;20057;-77
2024/03/14 00:41:13;;;;;;;9.60;4.38;;;;;;;11.69;68.68;100553.47;4996691;28;20136;-78
2024/03/14 00:44:18;;;;;;;8.57;4.00;;;;;;;11.69;68.75;100553.47;4996101;28;20382;-78
2024/03/14 00:47:22;;;;;;;8.13;3.38;;;;;;;11.48;69.40;100560.72;4995747;28;20053;-77
2024/03/14 00:50:28;;;;;;;5.80;3.58;;;;;;;11.65;68.93;100555.53;4996690;28;20045;-78
2024/03/14 00:53:33;;;;;;;6.35;3.78;;;;;;;11.40;69.51;100560.53;4996565;28;20382;-78
2024/03/14 00:56:38;;;;;;;7.57;3.13;;;;;;;11.54;69.72;100562.84;4995637;28;20049;-77
2024/03/14 00:59:43;;;;;;;5.57;3.20;;;;;;;11.63;68.61;100554.81;5009130;28;20397;-78
2024/03/14 01:02:48;;;;;;;6.50;2.97;;;;;;;11.53;68.92;100559.31;5007715;28;20057;-80
2024/03/14 01:05:53;;;;;;;7.25;3.65;;;;;;;11.24;69.75;100552.09;5006414;28;20496;-79
2024/03/14 01:08:58;;;;;;;7.53;3.53;;;;;;;11.28;69.56;100551.72;5008708;28;20057;-78
2024/03/14 01:12:02;;;;;;;5.85;3.30;;;;;;;11.39;69.71;100548.94;4995751;28;20054;-78
2024/03/14 01:15:07;;;;;;;8.65;3.10;;;;;;;11.31;69.71;100548.75;4996024;28;20045;-79
2024/03/14 01:18:11;;;;;;;8.57;4.20;;;;;;;11.44;69.70;100552.06;4996058;28;20496;-78
2024/03/14 01:21:17;;;;;;;7.72;3.63;;;;;;;11.56;69.01;100550.97;5002861;28;20057;-79
2024/03/14 01:24:21;;;;;;;6.25;3.40;;;;;;;11.55;68.92;100551.13;5003572;28;20049;-78
2024/03/14 01:27:26;;;;;;;8.60;4.00;;;;;;;11.60;68.52;100546.19;5015517;28;20057;-78
2024/03/14 01:30:30;;;;;;;5.65;3.72;;;;;;;11.29;69.35;100541.78;5015505;28;20057;-78
2024/03/14 01:33:35;;;;;;;5.68;3.33;;;;;;;11.31;69.94;100543.38;5014985;28;20057;-77
2024/03/14 01:36:40;;;;;;;12.75;3.97;;;;;;;11.36;69.62;100537.59;5015330;28;20045;-77
2024/03/14 01:39:45;;;;;;;10.52;3.17;;;;;;;11.33;69.87;100532.50;5015245;28;20053;-77
2024/03/14 01:42:55;;;;;;;5.78;3.30;;;;;;;11.32;69.94;100530.78;5014471;28;20045;-78
2024/03/14 01:45:59;;;;;;;9.02;3.95;;;;;;;11.33;69.48;100530.63;5015117;28;20393;-79
2024/03/14 01:49:04;;;;;;;6.40;3.67;;;;;;;11.08;70.49;100523.88;5014975;28;20045;-79
2024/03/14 01:52:08;;;;;;;8.13;3.15;;;;;;;11.00;70.58;100518.34;5015090;28;20077;-78
2024/03/14 01:55:14;;;;;;;8.52;3.88;;;;;;;10.94;71.34;100523.38;5014105;28;20484;-78
2024/03/14 01:58:25;;;;;;;8.93;3.17;;;;;;;11.06;70.99;100530.38;4982845;28;20525;-78
2024/03/14 02:01:29;;;;;;;7.32;2.95;;;;;;;10.94;71.05;100516.19;4994483;28;20069;-78
2024/03/14 02:05:20;;;;;;;6.20;3.25;;;;;;;10.62;71.64;100519.91;4995199;28;20049;-79
2024/03/14 02:08:25;;;;;;;5.47;3.15;;;;;;;10.75;72.06;100523.28;4983170;28;20114;-79
2024/03/14 02:11:29;;;;;;;8.63;3.60;;;;;;;10.69;71.71;100527.31;4995164;28;20489;-78
2024/03/14 02:14:34;;;;;;;6.93;3.50;;;;;;;10.92;71.75;100528.03;4995131;28;20054;-78
2024/03/14 02:17:39;;;;;;;6.32;3.38;;;;;;;11.16;70.53;100528.59;4995096;28;20050;-78
2024/03/14 02:20:44;;;;;;;6.35;3.42;;;;;;;10.83;71.06;100523.47;4995061;28;20057;-77
2024/03/14 02:23:48;;;;;;;7.63;3.30;;;;;;;10.64;71.64;100523.34;4994192;28;20061;-79
2024/03/14 02:26:59;;;;;;;6.60;3.10;;;;;;;10.95;71.00;100523.25;4994936;28;20053;-78
2024/03/14 02:30:04;;;;;;;6.85;2.63;;;;;;;11.03;70.35;100531.53;4994895;28;20058;-77
2024/03/14 02:33:08;;;;;;;6.38;3.05;;;;;;;11.26;69.30;100525.97;4994106;28;20065;-78
2024/03/14 02:36:13;;;;;;;5.25;2.92;;;;;;;11.07;69.55;100524.03;4995047;28;20053;-77
2024/03/14 02:39:22;;;;;;;6.03;3.17;;;;;;;10.96;70.04;100524.13;4994617;28;20057;-77
2024/03/14 02:42:26;;;;;;;6.35;3.13;;;;;;;10.96;70.27;100524.13;4994676;28;20052;-78
2024/03/14 02:45:31;;;;;;;7.20;3.45;;;;;;;10.85;70.91;100522.34;4994710;28;20057;-77
2024/03/14 02:48:37;;;;;;;5.50;2.83;;;;;;;10.76;71.48;100515.09;4993427;28;20401;-77
2024/03/14 02:51:45;;;;;;;6.13;3.17;;;;;;;10.69;71.37;100513.91;4981467;28;20174;-77
2024/03/14 02:54:50;;;;;;;5.85;2.83;;;;;;;10.52;72.20;100510.97;4994466;28;20053;-77
2024/03/14 02:57:54;;;;;;;6.65;3.10;;;;;;;10.48;73.27;100509.53;4992508;28;20053;-77
2024/03/14 03:00:59;;;;;;;6.97;3.35;;;;;;;10.47;72.60;100511.34;4992491;28;20057;-77
2024/03/14 03:04:03;;;;;;;6.03;3.20;;;;;;;10.51;72.53;100512.81;4992387;28;20053;-78
2024/03/14 03:07:09;;;;;;;6.30;3.03;;;;;;;10.66;72.09;100506.13;4983056;28;20058;-78
2024/03/14 03:10:16;;;;;;;6.85;3.83;;;;;;;10.50;72.64;100516.47;4996297;28;20065;-77
2024/03/14 03:13:20;;;;;;;7.38;2.90;;;;;;;10.68;71.92;100520.28;4995738;28;20049;-78
2024/03/14 03:16:25;;;;;;;6.47;3.50;;;;;;;10.45;72.78;100511.50;4996424;28;20065;-79
2024/03/14 03:19:29;;;;;;;5.45;2.40;;;;;;;10.44;73.50;100515.13;4996203;28;20053;-78
2024/03/14 03:23:06;;;;;;;6.47;3.42;;;;;;;10.57;73.15;100516.78;4995993;28;20053;-78
2024/03/14 03:25:57;;;;;;;;;;;;;;;10.75;72.17;100517.91;4996641;28;20056;-77
2024/03/14 03:29:01;;;;;;;5.85;2.58;;;;;;;10.44;72.90;100517.00;4997318;28;19918;-77
2024/03/14 03:32:06;;;;;;;6.07;2.90;;;;;;;10.47;73.27;100526.63;4998163;28;20053;-77
2024/03/14 03:35:11;;;;;;;4.68;2.72;;;;;;;10.44;73.12;100523.19;4998053;28;20053;-78
2024/03/14 03:38:15;;;;;;;6.72;2.78;;;;;;;10.46;73.31;100520.41;4997633;28;20049;-78
2024/03/14 03:41:23;;;;;;;7.45;2.95;;;;;;;10.26;74.01;100518.53;4997959;28;20057;-78
2024/03/14 03:44:29;;;;;;;9.85;3.58;;;;;;;10.19;74.42;100517.34;4997903;28;20061;-77
2024/03/14 03:47:33;;;;;;;5.35;2.90;;;;;;;10.20;74.49;100514.53;4997680;28;20049;-77
2024/03/14 03:50:39;;;;;;;7.65;2.70;;;;;;;10.36;73.81;100520.31;5010971;28;20060;-78
2024/03/14 03:53:44;;;;;;;6.60;3.05;;;;;;;10.23;74.47;100516.97;5016633;28;20048;-78
2024/03/14 03:56:49;;;;;;;4.68;2.88;;;;;;;10.45;73.57;100516.00;5017226;28;20225;-79
2024/03/14 03:59:53;;;;;;;5.75;2.65;;;;;;;10.42;74.01;100518.94;5017140;28;20053;-77
2024/03/14 04:02:58;;;;;;;6.10;3.40;;;;;;;10.48;73.20;100513.06;5017107;28;20584;-78
2024/03/14 04:06:03;;;;;;;5.55;3.00;;;;;;;10.43;73.95;100517.97;5017073;28;20053;-77
2024/03/14 04:09:14;;;;;;;5.22;2.65;;;;;;;10.08;74.86;100509.31;5016903;28;20496;-78
2024/03/14 04:12:19;;;;;;;7.28;3.17;;;;;;;10.31;74.43;100510.94;5016676;28;20084;-77
2024/03/14 04:15:23;;;;;;;5.78;2.65;;;;;;;10.55;73.01;100514.25;5016887;28;20064;-78
2024/03/14 04:18:29;;;;;;;4.55;2.47;;;;;;;10.21;73.88;100516.25;5015765;28;20161;-78
2024/03/14 04:21:33;;;;;;;6.93;3.40;;;;;;;10.34;73.62;100518.75;5005106;28;20060;-78
2024/03/14 04:24:37;;;;;;;6.10;2.95;;;;;;;10.17;74.08;100520.13;5016781;28;20049;-78
2024/03/14 04:27:42;;;;;;;5.28;2.38;;;;;;;10.33;73.81;100525.94;5016706;28;20057;-78
2024/03/14 04:30:47;;;;;;;4.85;2.55;;;;;;;10.36;73.67;100514.09;5016395;28;20053;-77
2024/03/14 04:33:52;;;;;;;5.72;2.50;;;;;;;10.18;73.98;100521.00;5016697;28;20053;-79
2024/03/14 04:36:57;;;;;;;5.03;2.35;;;;;;;10.01;74.93;100516.16;5016546;28;20073;-78
2024/03/14 04:40:04;;;;;;;4.75;2.40;;;;;;;10.17;74.75;100513.94;5015599;28;20397;-78
2024/03/14 04:43:09;;;;;;;4.07;2.35;;;;;;;10.31;74.48;100527.06;5015839;28;20057;-79
2024/03/14 04:46:13;;;;;;;7.18;2.65;;;;;;;10.03;75.99;100528.47;5016424;28;20053;-77
2024/03/14 04:49:17;;;;;;;5.25;2.70;;;;;;;10.34;74.55;100526.81;5015695;28;20049;-77
2024/03/14 04:52:25;;;;;;;5.45;2.60;;;;;;;10.21;74.82;100523.44;5016271;28;20053;-79
2024/03/14 04:55:29;;;;;;;4.78;2.53;;;;;;;10.12;74.97;100524.22;5016159;28;20068;-78
2024/03/14 04:58:37;;;;;;;5.88;2.78;;;;;;;9.99;76.00;100518.13;5004079;28;20076;-78
2024/03/14 05:01:42;;;;;;;6.38;2.40;;;;;;;9.89;76.58;100515.34;5015241;28;20049;-77
2024/03/14 05:04:48;;;;;;;8.35;2.45;;;;;;;9.99;75.97;100515.44;5015149;28;20049;-77
2024/03/14 05:07:53;;;;;;;9.05;2.92;;;;;;;10.11;75.13;100517.97;5003666;28;20053;-78
2024/03/14 05:10:58;;;;;;;4.82;2.53;;;;;;;9.99;75.04;100513.63;5015343;28;20114;-77
2024/03/14 05:14:02;;;;;;;5.13;2.28;;;;;;;9.90;75.68;100519.72;5015146;28;20056;-78
2024/03/14 05:17:12;;;;;;;6.10;2.33;;;;;;;10.26;74.59;100522.06;5015769;28;20053;-78
2024/03/14 05:20:16;;;;;;;4.50;2.55;;;;;;;9.95;74.86;100522.88;5015729;28;20496;-77
2024/03/14 05:23:21;;;;;;;4.18;2.45;;;;;;;10.08;75.09;100520.88;5015643;28;20041;-77
2024/03/14 05:26:28;;;;;;;5.85;3.00;;;;;;;10.05;75.85;100525.66;5014652;28;20052;-78
2024/03/14 05:29:32;;;;;;;4.97;2.67;;;;;;;10.47;73.45;100522.09;5014788;28;20393;-77
2024/03/14 05:32:37;;;;;;;4.30;2.78;;;;;;;10.53;73.73;100526.94;5014675;28;20512;-77
2024/03/14 05:35:41;;;;;;;3.95;2.35;;;;;;;10.61;73.08;100526.28;5003112;28;20053;-77
2024/03/14 05:38:49;;;;;;;4.85;2.60;;;;;;;10.70;72.74;100530.88;5014606;28;20381;-77
2024/03/14 05:41:53;;;;;;;5.85;2.85;;;;;;;10.88;72.03;100532.84;5015686;28;20061;-78
2024/03/14 05:44:58;;;;;;;5.65;3.00;;;;;;;10.86;72.60;100539.31;5015284;28;20058;-78
2024/03/14 05:48:11;;;;;;;10.90;2.42;;;;;;;11.13;70.97;100541.44;5003168;28;20053;-78
2024/03/14 05:51:15;;;;;;;6.87;2.87;;;;;;;11.46;70.22;100538.47;5003106;28;20046;-78
2024/03/14 05:54:20;;;;;;;5.05;2.33;;;;;;;11.57;69.43;100541.94;5015092;28;20272;-77
2024/03/14 05:57:24;;;;;;;6.43;2.42;;;;;;;11.56;69.35;100539.38;5014785;28;20053;-77
2024/03/14 06:00:29;;;;;;;7.93;2.70;;;;;;;11.89;68.03;100543.59;5002673;28;20064;-77
2024/03/14 06:03:34;;;;;;;6.18;2.70;;;;;;;12.19;67.47;100552.44;5014915;28;20049;-77
2024/03/14 06:06:38;;;;;;;5.47;2.33;;;;;;;12.11;67.04;100540.66;5034692;28;20384;-78
2024/03/14 06:09:42;;;;;;;6.68;2.60;;;;;;;12.50;66.37;100552.28;5022397;28;20483;-78
2024/03/14 06:12:46;;;;;;;6.70;2.50;;;;;;;12.83;64.98;100554.53;5022091;28;20519;-78
2024/03/14 06:15:51;;;;;;;4.63;2.60;;;;;;;12.73;64.91;100553.72;5022268;28;20057;-78
2024/03/14 06:18:58;;;;;;;6.93;2.72;;;;;;;12.83;64.63;100549.16;5034347;28;20052;-78
2024/03/14 06:22:02;;;;;;;7.43;3.28;;;;;;;13.27;62.91;100553.03;5022259;28;20064;-77
2024/03/14 06:25:07;;;;;;;8.25;2.83;;;;;;;13.48;61.87;100557.22;5034254;28;20056;-78
2024/03/14 06:28:11;;;;;;;4.03;2.40;;;;;;;13.57;61.25;100550.94;5022215;28;20049;-77
2024/03/14 06:31:15;;;;;;;7.85;2.60;;;;;;;13.26;62.51;100562.16;5022039;28;20103;-77
2024/03/14 06:34:20;;;;;;;6.28;2.45;;;;;;;13.65;61.16;100569.09;5031252;28;20052;-77
2024/03/14 06:37:25;;;;;;;8.52;2.60;;;;;;;13.93;60.55;100567.22;5013013;28;20049;-76
2024/03/14 06:40:30;;;;;;;6.25;2.83;;;;;;;14.05;60.49;100574.09;5019963;28;20400;-77
2024/03/14 06:43:36;;;;;;;8.95;3.30;;;;;;;14.19;59.88;100570.91;5013869;28;20057;-77
2024/03/14 06:46:42;;;;;;;7.80;3.83;;;;;;;14.57;58.44;100576.03;5014704;28;20052;-77
2024/03/14 06:49:47;;;;;;;13.48;4.35;;;;;;;14.60;58.28;100577.59;5017504;28;20393;-77
2024/03/14 06:52:52;;;;;;;12.35;4.68;;;;;;;14.58;58.07;100585.84;5032658;28;20484;-77
2024/03/14 06:55:57;;;;;;;26.38;13.43;;;;;;;15.06;57.10;100585.41;5035613;28;20092;-77
2024/03/14 06:59:05;;;;;;;14.05;5.25;;;;;;;15.07;57.13;100587.09;5033608;28;20396;-77
2024/03/14 07:02:10;;;;;;;7.22;3.65;;;;;;;15.61;55.09;100592.22;5034142;28;20071;-78
2024/03/14 07:05:15;;;;;;;9.05;3.78;;;;;;;15.93;54.25;100587.97;5029810;28;20049;-79
2024/03/14 07:08:20;;;;;;;12.75;4.43;;;;;;;16.06;53.72;100591.06;4994511;28;20050;-83
2024/03/14 07:11:28;;;;;;;13.15;4.82;;;;;;;16.41;53.43;100595.41;4994302;28;20049;-80
2024/03/14 07:14:32;;;;;;;16.73;5.32;;;;;;;16.69;53.19;100591.44;4993916;28;20051;-79
2024/03/14 07:17:37;;;;;;;17.48;5.72;;;;;;;16.98;52.79;100596.34;4991524;28;20042;-83
2024/03/14 07:20:44;;;;;;;14.82;6.60;;;;;;;17.25;53.22;100594.13;5012453;28;20046;-83
2024/03/14 07:23:50;;;;;;;11.20;5.35;;;;;;;17.81;51.80;100597.72;5012733;28;20057;-80
2024/03/14 07:26:54;;;;;;;9.85;5.82;;;;;;;18.28;50.59;100593.09;5013487;28;20052;-77
2024/03/14 07:30:00;;;;;;;12.05;6.07;;;;;;;18.33;50.30;100590.69;5001935;28;20049;-79
2024/03/14 07:33:05;;;;;;;10.38;5.75;;;;;;;18.44;49.79;100603.88;5014018;28;20042;-80
2024/03/14 07:36:15;;;;;;;11.02;5.85;;;;;;;18.63;49.37;100602.59;5013993;28;20061;-80
2024/03/14 07:39:25;;;;;;;10.82;5.53;;;;;;;18.88;49.25;100603.28;5013845;28;20034;-79
2024/03/14 07:42:31;;;;;;;8.70;5.40;;;;;;;19.19;48.50;100606.75;5001949;28;20049;-78
2024/03/14 07:45:35;;;;;;;10.07;5.35;;;;;;;19.40;47.55;100604.22;5013714;28;20049;-79
2024/03/14 07:48:43;;;;;;;9.65;5.70;;;;;;;19.64;48.15;100606.69;5013743;28;20057;-77
2024/03/14 07:51:48;;;;;;;9.50;5.50;;;;;;;20.20;46.34;100613.31;5013760;28;20053;-79
2024/03/14 07:54:53;;;;;;;8.93;5.95;;;;;;;20.85;45.10;100607.81;5016633;28;20057;-76
2024/03/14 07:57:58;;;;;;;10.95;5.63;;;;;;;21.25;43.95;100611.78;5017319;28;20386;-78
2024/03/14 08:01:09;;;;;;;9.63;5.53;;;;;;;21.97;43.31;100615.06;5017265;28;20442;-78
2024/03/14 08:04:14;;;;;;;8.65;4.97;;;;;;;23.05;41.21;100620.47;5017286;28;20069;-77
2024/03/14 08:07:22;;;;;;;8.50;5.07;;;;;;;23.86;39.11;100627.44;4982663;28;20125;-78
2024/03/14 08:10:28;;;;;;;8.45;5.40;;;;;;;24.05;39.13;100617.50;5017159;28;20076;-78
2024/03/14 08:13:33;;;;;;;7.88;4.97;;;;;;;24.62;38.35;100627.59;5015808;28;20053;-73
2024/03/14 08:16:38;;;;;;;7.72;5.25;;;;;;;24.65;37.49;100622.53;5017126;28;20057;-77
2024/03/14 08:19:46;;;;;;;10.40;6.72;;;;;;;24.47;38.07;100630.63;5027594;28;20057;-75
2024/03/14 08:22:52;;;;;;;10.40;7.22;;;;;;;24.54;38.11;100628.72;5036930;28;20505;-77
2024/03/14 08:25:57;;;;;;;11.05;7.32;;;;;;;25.38;36.59;100625.66;5015659;28;20058;-80
2024/03/14 08:29:02;;;;;;;10.73;7.43;;;;;;;25.90;36.31;100630.66;5004590;28;20053;-77
2024/03/14 08:32:09;;;;;;;10.13;7.35;;;;;;;27.36;33.71;100632.13;5033978;28;20507;-78
2024/03/14 08:35:14;;;;;;;11.40;7.50;;;;;;;28.19;32.44;100638.34;5030777;28;20038;-78
2024/03/14 08:38:19;;;;;;;11.85;8.30;;;;;;;28.85;31.28;100631.41;4992557;28;20053;-78
2024/03/14 08:41:24;;;;;;;13.13;8.35;;;;;;;29.40;30.56;100629.69;5015809;28;20061;-78
2024/03/14 08:44:28;;;;;;;12.15;8.68;;;;;;;29.60;30.52;100641.06;5015620;28;20041;-80
2024/03/14 08:47:34;;;;;;;11.15;8.48;;;;;;;29.54;30.56;100636.56;5015580;28;20042;-75
2024/03/14 08:50:40;;;;;;;11.95;8.73;;;;;;;29.17;31.36;100645.56;5003225;28;20057;-78
2024/03/14 08:57:09;;;;;;;11.68;9.05;;;;;;;30.37;29.54;100640.34;5015514;28;20046;-79
2024/03/14 09:00:23;;;;;;;13.70;11.05;;;;;;;30.75;28.63;100643.84;5015274;28;20057;-80
2024/03/14 09:03:27;;;;;;;14.50;11.25;;;;;;;30.67;29.00;100649.84;5015504;28;20050;-80
2024/03/14 09:06:34;;;;;;;16.98;11.52;;;;;;;31.08;28.15;100648.41;5014577;28;20497;-79
2024/03/14 09:09:39;;;;;;;14.70;10.40;;;;;;;31.32;28.07;100652.53;5015164;28;20485;-79
2024/03/14 09:12:45;;;;;;;13.82;10.38;;;;;;;31.10;28.74;100654.53;5014925;28;20054;-79
2024/03/14 09:15:50;;;;;;;15.45;10.18;;;;;;;31.36;28.43;100653.66;5014397;28;20402;-77
2024/03/14 09:18:57;;;;;;;14.30;11.90;;;;;;;31.45;27.79;100651.28;5015738;28;20050;-74
2024/03/14 09:22:02;;;;;;;17.23;12.43;;;;;;;31.57;27.75;100653.88;5015756;28;20473;-77
2024/03/14 09:25:07;;;;;;;17.42;11.82;;;;;;;31.99;27.62;100654.78;4994365;28;20042;-77
2024/03/14 09:28:12;;;;;;;13.57;11.13;;;;;;;31.56;27.98;100655.81;4995894;28;20474;-75
2024/03/14 09:31:17;;;;;;;14.95;11.25;;;;;;;31.69;27.86;100647.03;4995915;28;20046;-76
2024/03/14 09:34:22;;;;;;;15.57;12.10;;;;;;;30.50;29.01;100646.31;4995706;28;20389;-77
2024/03/14 09:37:27;;;;;;;14.80;12.30;;;;;;;28.69;31.52;100660.66;4994391;28;20047;-78
2024/03/14 09:40:32;;;;;;;16.42;13.23;;;;;;;27.12;33.51;100655.22;4994389;28;20051;-78
2024/03/14 09:43:39;;;;;;;34.45;27.58;;;;;;;26.31;35.84;100652.91;4982345;28;20058;-78
2024/03/14 09:46:49;;;;;;;22.05;14.60;;;;;;;26.19;35.55;100660.25;4994513;28;20042;-79
2024/03/14 09:49:54;;;;;;;19.20;15.18;;;;;;;25.26;36.54;100643.94;4982362;28;20042;-79
2024/03/14 09:53:01;;;;;;;20.40;16.35;;;;;;;25.01;37.22;100647.47;4983547;28;20043;-77
2024/03/14 09:56:06;;;;;;;21.13;16.73;;;;;;;24.41;37.94;100648.84;4995523;28;20047;-77
2024/03/14 09:59:11;;;;;;;24.35;17.60;;;;;;;24.06;39.06;100644.69;4995378;28;20050;-78
2024/03/14 10:02:17;;;;;;;20.27;15.82;;;;;;;23.68;40.29;100644.53;4995160;28;20042;-77
2024/03/14 10:05:22;;;;;;;24.40;17.95;;;;;;;23.23;41.20;100637.97;4995373;28;20050;-77
2024/03/14 10:08:31;;;;;;;24.85;19.02;;;;;;;22.96;41.71;100640.91;4995068;28;20113;-76
2024/03/14 10:11:37;;;;;;;23.05;17.67;;;;;;;22.60;42.19;100642.03;4980092;28;20042;-76
2024/03/14 10:14:42;;;;;;;21.45;17.60;;;;;;;22.67;41.81;100640.19;5008247;28;20046;-77
2024/03/14 10:17:47;;;;;;;25.17;19.60;;;;;;;22.30;42.71;100642.53;4995220;28;20050;-77
2024/03/14 10:20:53;;;;;;;25.13;19.65;;;;;;;22.19;43.62;100632.19;4995115;28;20062;-80
2024/03/14 10:23:58;;;;;;;27.80;19.13;;;;;;;22.02;44.64;100634.44;4995152;28;20046;-81
2024/03/14 10:27:04;;;;;;;26.13;19.10;;;;;;;21.88;45.44;100638.94;4994933;28;20042;-77
2024/03/14 10:30:12;;;;;;;27.75;21.45;;;;;;;21.24;46.24;100632.75;4994903;28;20054;-78
2024/03/14 10:33:16;;;;;;;29.67;23.05;;;;;;;20.89;47.21;100633.66;4994893;28;20054;-76
2024/03/14 10:36:22;;;;;;;31.45;21.77;;;;;;;20.64;49.07;100630.44;4994866;28;20050;-77
2024/03/14 10:39:35;;;;;;;31.92;21.80;;;;;;;20.45;49.29;100630.22;4994844;28;20050;-77
2024/03/14 10:42:48;;;;;;;26.98;21.60;;;;;;;20.77;49.54;100624.28;4994782;28;20058;-75
2024/03/14 10:45:52;;;;;;;28.73;21.13;;;;;;;20.92;47.29;100625.06;4994760;28;20042;-78
2024/03/14 10:48:59;;;;;;;30.10;23.33;;;;;;;20.92;47.44;100629.69;4994669;28;20050;-77
2024/03/14 10:52:06;;;;;;;32.08;23.30;;;;;;;20.74;48.33;100627.41;4994645;28;20458;-77
2024/03/14 10:55:21;;;;;;;31.55;21.77;;;;;;;20.92;48.77;100627.81;4994660;28;20050;-78
2024/03/14 10:58:29;;;;;;;32.38;21.45;;;;;;;21.11;48.47;100624.44;4994694;28;20133;-80
2024/03/14 11:01:35;;;;;;;29.38;23.02;;;;;;;20.97;49.36;100619.88;4994495;28;20046;-80
2024/03/14 11:04:41;;;;;;;28.65;20.17;;;;;;;21.00;48.41;100614.03;4994577;28;20050;-80
2024/03/14 11:07:48;;;;;;;31.80;23.45;;;;;;;20.65;47.35;100612.19;4994553;28;20054;-81
2024/03/14 11:10:56;;;;;;;32.05;22.80;;;;;;;20.56;46.85;100616.94;4994764;28;20081;-80
2024/03/14 11:14:05;;;;;;;30.25;21.75;;;;;;;20.50;48.27;100620.44;4993977;28;20050;-80
2024/03/14 11:17:14;;;;;;;34.20;25.70;;;;;;;20.58;49.67;100611.28;4994532;28;20042;-79
2024/03/14 11:20:19;;;;;;;34.38;25.02;;;;;;;20.66;49.82;100613.91;4994381;28;20046;-80
2024/03/14 11:23:28;;;;;;;32.15;23.40;;;;;;;20.89;49.42;100610.97;4982332;28;20046;-80
2024/03/14 11:26:34;;;;;;;33.67;25.38;;;;;;;20.79;48.92;100610.47;4982406;28;20038;-77
2024/03/14 11:29:42;;;;;;;31.50;25.30;;;;;;;20.72;49.70;100603.06;4997971;28;20212;-78
2024/03/14 11:32:49;;;;;;;35.03;24.92;;;;;;;20.77;48.13;100599.72;4998238;28;20390;-78
2024/03/14 11:35:58;;;;;;;32.92;23.67;;;;;;;20.76;48.19;100592.59;4974760;28;20050;-77
2024/03/14 11:39:26;;;;;;;34.60;25.88;;;;;;;20.83;49.30;100587.19;4998133;28;20046;-77
2024/03/14 11:42:31;;;;;;;37.22;26.63;;;;;;;20.65;50.38;100588.50;4997817;28;20054;-76
2024/03/14 11:45:36;;;;;;;33.30;24.63;;;;;;;20.62;49.80;100586.16;5003728;28;20043;-77
2024/03/14 11:48:42;;;;;;;30.85;24.92;;;;;;;20.59;50.08;100578.34;4998509;28;20042;-77
2024/03/14 11:51:50;;;;;;;37.58;28.67;;;;;;;20.54;52.79;100567.16;5003677;28;20042;-77
2024/03/14 11:54:57;;;;;;;32.75;26.83;;;;;;;20.38;53.22;100570.16;4986495;28;20482;-77
2024/03/14 11:58:05;;;;;;;39.13;26.85;;;;;;;20.45;54.17;100567.50;4997817;28;20106;-77
2024/03/14 12:01:14;;;;;;;36.60;26.75;;;;;;;20.65;53.55;100563.94;4996907;28;20469;-77
2024/03/14 12:04:20;;;;;;;40.35;26.77;;;;;;;20.51;52.77;100562.13;4997591;28;20039;-77
2024/03/14 12:07:26;;;;;;;36.38;27.23;;;;;;;20.15;52.90;100560.44;4997568;28;20043;-76
2024/03/14 12:10:32;;;;;;;32.83;24.35;;;;;;;20.20;52.37;100555.22;4997427;28;20054;-77
2024/03/14 12:13:38;;;;;;;37.10;26.10;;;;;;;20.15;52.30;100554.97;4997036;28;20050;-77
2024/03/14 12:16:47;;;;;;;33.72;24.40;;;;;;;20.10;51.09;100552.78;4997511;28;20046;-77
2024/03/14 12:19:54;;;;;;;34.50;23.90;;;;;;;20.13;51.13;100545.09;4997395;28;20042;-76
2024/03/14 12:22:58;;;;;;;34.65;24.30;;;;;;;20.11;51.29;100544.44;4997314;28;20055;-77
2024/03/14 12:26:12;;;;;;;31.23;23.40;;;;;;;20.11;51.23;100544.44;4997276;28;20042;-77
2024/03/14 12:29:19;;;;;;;33.95;23.35;;;;;;;20.22;50.78;100540.34;4985186;28;20043;-77
2024/03/14 12:32:24;;;;;;;35.40;25.00;;;;;;;19.95;53.20;100531.03;4997150;28;20046;-76
2024/03/14 12:35:29;;;;;;;33.40;24.25;;;;;;;19.94;53.80;100539.41;4997073;28;20046;-76
2024/03/14 12:38:33;;;;;;;32.17;24.63;;;;;;;20.16;53.92;100529.38;4984720;28;20050;-76
2024/03/14 12:41:38;;;;;;;32.35;23.00;;;;;;;20.05;52.27;100523.41;4996758;28;20474;-77
2024/03/14 12:44:43;;;;;;;33.30;21.80;;;;;;;20.11;51.06;100521.78;4996923;28;20465;-77
2024/03/14 12:47:48;;;;;;;27.13;19.00;;;;;;;20.15;51.00;100522.25;4996817;28;20487;-77
2024/03/14 12:50:53;;;;;;;28.73;20.25;;;;;;;20.14;49.96;100521.41;4996788;28;20430;-77
2024/03/14 12:54:03;;;;;;;28.45;19.30;;;;;;;20.14;49.87;100510.50;4996001;28;20486;-77
2024/03/14 12:57:10;;;;;;;28.85;21.15;;;;;;;19.70;52.25;100512.47;4975340;28;20458;-77
2024/03/14 13:00:17;;;;;;;29.63;22.10;;;;;;;19.77;52.50;100516.97;4975269;28;20043;-77
2024/03/14 13:03:22;;;;;;;33.95;21.70;;;;;;;19.71;52.83;100509.56;4975122;28;20426;-77
2024/03/14 13:06:29;;;;;;;30.00;22.88;;;;;;;19.48;54.26;100517.81;4975255;28;20475;-77
2024/03/14 13:09:33;;;;;;;28.25;22.77;;;;;;;19.87;52.91;100503.91;4974973;28;20051;-76
2024/03/14 13:12:40;;;;;;;25.65;18.40;;;;;;;19.70;51.64;100502.41;4974936;28;20050;-77
2024/03/14 13:15:50;;;;;;;26.50;18.00;;;;;;;19.70;50.27;100507.84;4974934;28;20530;-76
2024/03/14 13:18:55;;;;;;;27.65;19.27;;;;;;;19.71;51.24;100495.09;4963897;28;20039;-76
2024/03/14 13:21:59;;;;;;;24.63;18.63;;;;;;;19.82;50.32;100490.00;4974842;28;20051;-76
2024/03/14 13:25:04;;;;;;;26.55;18.10;;;;;;;19.89;49.45;100488.22;4975013;28;20047;-77
2024/03/14 13:28:10;;;;;;;24.45;17.13;;;;;;;19.88;47.24;100494.69;4985675;28;20046;-77
2024/03/14 13:31:17;;;;;;;21.20;15.88;;;;;;;19.87;47.96;100492.16;5000389;28;20042;-77
2024/03/14 13:34:26;;;;;;;25.52;16.95;;;;;;;19.81;48.61;100488.31;4996295;28;20054;-76
2024/03/14 13:37:32;;;;;;;24.23;17.42;;;;;;;19.75;49.79;100491.78;4995329;28;20042;-77
2024/03/14 13:40:36;;;;;;;26.67;18.58;;;;;;;19.82;49.73;100484.56;4995872;28;20042;-77
2024/03/14 13:43:42;;;;;;;27.67;18.85;;;;;;;19.90;49.84;100483.63;4984023;28;20046;-76
2024/03/14 13:46:50;;;;;;;24.67;18.13;;;;;;;19.96;50.17;100483.69;4994854;28;20042;-76
2024/03/14 13:49:58;;;;;;;25.90;17.98;;;;;;;19.97;49.93;100481.81;4995674;28;20046;-76
2024/03/14 13:53:06;;;;;;;24.60;18.08;;;;;;;20.01;49.72;100475.78;4995549;28;20466;-76
2024/03/14 13:56:13;;;;;;;24.08;17.40;;;;;;;19.95;49.72;100476.53;4983260;28;20398;-76
2024/03/14 13:59:17;;;;;;;24.48;17.38;;;;;;;20.03;49.66;100472.84;4995472;28;20042;-76
2024/03/14 14:02:22;;;;;;;27.33;20.48;;;;;;;20.05;52.09;100468.88;4995368;28;20054;-77
2024/03/14 14:05:27;;;;;;;27.60;21.38;;;;;;;20.11;52.97;100464.56;4995421;28;20042;-76
2024/03/14 14:08:31;;;;;;;28.52;21.63;;;;;;;20.02;53.37;100466.53;4994507;28;20046;-76
2024/03/14 14:11:39;;;;;;;26.65;20.70;;;;;;;19.85;53.27;100461.53;4995337;28;20462;-76
2024/03/14 14:14:44;;;;;;;31.30;20.95;;;;;;;19.87;53.20;100460.31;4995221;28;20042;-76
2024/03/14 14:17:48;;;;;;;27.10;20.90;;;;;;;19.97;53.41;100452.66;4995256;28;20390;-76
2024/03/14 14:20:54;;;;;;;31.25;20.88;;;;;;;20.03;53.25;100456.50;4995119;28;20046;-76